sensor_id;sensor_type;location;lat;lon;timestamp;P1;durP1;ratioP1;P2;durP2;ratioP2
1577;SDS011;57623;53.608;10.004;2024-01-30T00:00:23;11.30;;;9.50;;
1577;SDS011;57623;53.608;10.004;2024-01-30T00:02:51;11.53;;;10.33;;
1577;SDS011;57623;53.608;10.004;2024-01-30T00:05:19;11.23;;;9.90;;
1577;SDS011;57623;53.608;10.004;2024-01-30T00:07:47;12.00;;;10.53;;
1577;SDS011;57623;53.608;10.004;2024-01-30T00:10:15;11.87;;;10.70;;
1577;SDS011;57623;53.608;10.004;2024-01-30T00:12:45;12.60;;;10.73;;
1577;SDS011;57623;53.608;10.004;2024-01-30T00:15:13;11.00;;;10.00;;
1577;SDS011;57623;53.608;10.004;2024-01-30T00:17:41;10.90;;;9.50;;
1577;SDS011;57623;53.608;10.004;2024-01-30T00:20:09;12.90;;;11.60;;
1577;SDS011;57623;53.608;10.004;2024-01-30T00:22:38;10.13;;;9.23;;
1577;SDS011;57623;53.608;10.004;2024-01-30T00:25:06;11.90;;;10.13;;
1577;SDS011;57623;53.608;10.004;2024-01-30T00:27:35;11.23;;;10.07;;
1577;SDS011;57623;53.608;10.004;2024-01-30T00:30:05;9.63;;;8.73;;
1577;SDS011;57623;53.608;10.004;2024-01-30T00:32:34;11.73;;;9.80;;
1577;SDS011;57623;53.608;10.004;2024-01-30T00:35:02;11.93;;;10.17;;
1577;SDS011;57623;53.608;10.004;2024-01-30T00:37:30;10.83;;;9.80;;
1577;SDS011;57623;53.608;10.004;2024-01-30T00:39:58;11.00;;;9.90;;
1577;SDS011;57623;53.608;10.004;2024-01-30T00:42:27;12.97;;;10.30;;
1577;SDS011;57623;53.608;10.004;2024-01-30T00:44:55;10.70;;;9.40;;
1577;SDS011;57623;53.608;10.004;2024-01-30T00:47:24;9.97;;;9.00;;
1577;SDS011;57623;53.608;10.004;2024-01-30T00:49:52;11.47;;;10.30;;
1577;SDS011;57623;53.608;10.004;2024-01-30T00:52:20;11.13;;;10.10;;
1577;SDS011;57623;53.608;10.004;2024-01-30T00:54:48;10.50;;;9.33;;
1577;SDS011;57623;53.608;10.004;2024-01-30T00:57:16;10.63;;;9.60;;
1577;SDS011;57623;53.608;10.004;2024-01-30T00:59:45;12.00;;;10.70;;
1577;SDS011;57623;53.608;10.004;2024-01-30T01:02:13;10.33;;;9.20;;
1577;SDS011;57623;53.608;10.004;2024-01-30T01:04:44;11.53;;;10.33;;
1577;SDS011;57623;53.608;10.004;2024-01-30T01:07:12;11.97;;;10.20;;
1577;SDS011;57623;53.608;10.004;2024-01-30T01:09:40;11.60;;;9.80;;
1577;SDS011;57623;53.608;10.004;2024-01-30T01:12:08;12.60;;;10.17;;
1577;SDS011;57623;53.608;10.004;2024-01-30T01:14:36;10.87;;;9.77;;
1577;SDS011;57623;53.608;10.004;2024-01-30T01:17:04;11.97;;;9.67;;
1577;SDS011;57623;53.608;10.004;2024-01-30T01:19:32;10.83;;;9.73;;
1577;SDS011;57623;53.608;10.004;2024-01-30T01:22:02;10.40;;;9.30;;
1577;SDS011;57623;53.608;10.004;2024-01-30T01:24:30;10.97;;;9.87;;
1577;SDS011;57623;53.608;10.004;2024-01-30T01:26:58;10.43;;;9.40;;
1577;SDS011;57623;53.608;10.004;2024-01-30T01:29:26;10.60;;;9.50;;
1577;SDS011;57623;53.608;10.004;2024-01-30T01:31:55;11.07;;;10.00;;
1577;SDS011;57623;53.608;10.004;2024-01-30T01:34:23;12.43;;;9.90;;
1577;SDS011;57623;53.608;10.004;2024-01-30T01:36:56;12.33;;;9.53;;
1577;SDS011;57623;53.608;10.004;2024-01-30T01:39:25;10.10;;;9.20;;
1577;SDS011;57623;53.608;10.004;2024-01-30T01:41:53;13.20;;;10.30;;
1577;SDS011;57623;53.608;10.004;2024-01-30T01:44:21;11.50;;;9.50;;
1577;SDS011;57623;53.608;10.004;2024-01-30T01:46:49;9.97;;;8.63;;
1577;SDS011;57623;53.608;10.004;2024-01-30T01:49:18;11.70;;;9.40;;
1577;SDS011;57623;53.608;10.004;2024-01-30T01:51:48;9.60;;;8.60;;
1577;SDS011;57623;53.608;10.004;2024-01-30T01:54:18;10.10;;;9.10;;
1577;SDS011;57623;53.608;10.004;2024-01-30T01:56:47;9.77;;;8.77;;
1577;SDS011;57623;53.608;10.004;2024-01-30T01:59:15;10.00;;;9.03;;
1577;SDS011;57623;53.608;10.004;2024-01-30T02:01:44;9.40;;;8.50;;
1577;SDS011;57623;53.608;10.004;2024-01-30T02:04:16;9.67;;;8.70;;
1577;SDS011;57623;53.608;10.004;2024-01-30T02:06:44;9.90;;;8.90;;
1577;SDS011;57623;53.608;10.004;2024-01-30T02:09:12;12.03;;;9.77;;
1577;SDS011;57623;53.608;10.004;2024-01-30T02:11:40;10.47;;;8.23;;
1577;SDS011;57623;53.608;10.004;2024-01-30T02:14:10;10.03;;;9.03;;
1577;SDS011;57623;53.608;10.004;2024-01-30T02:16:38;10.03;;;9.13;;
1577;SDS011;57623;53.608;10.004;2024-01-30T02:19:06;9.47;;;8.57;;
1577;SDS011;57623;53.608;10.004;2024-01-30T02:21:35;10.23;;;8.80;;
1577;SDS011;57623;53.608;10.004;2024-01-30T02:24:04;9.80;;;8.90;;
1577;SDS011;57623;53.608;10.004;2024-01-30T02:26:32;9.70;;;8.70;;
1577;SDS011;57623;53.608;10.004;2024-01-30T02:29:00;9.30;;;8.10;;
1577;SDS011;57623;53.608;10.004;2024-01-30T02:31:28;9.37;;;8.50;;
1577;SDS011;57623;53.608;10.004;2024-01-30T02:33:56;12.17;;;10.27;;
1577;SDS011;57623;53.608;10.004;2024-01-30T02:36:24;12.13;;;9.67;;
1577;SDS011;57623;53.608;10.004;2024-01-30T02:38:54;10.93;;;9.17;;
1577;SDS011;57623;53.608;10.004;2024-01-30T02:41:22;9.47;;;8.47;;
1577;SDS011;57623;53.608;10.004;2024-01-30T02:43:50;9.47;;;8.57;;
1577;SDS011;57623;53.608;10.004;2024-01-30T02:46:18;9.50;;;8.60;;
1577;SDS011;57623;53.608;10.004;2024-01-30T02:48:46;9.20;;;8.30;;
1577;SDS011;57623;53.608;10.004;2024-01-30T02:51:14;9.87;;;8.60;;
1577;SDS011;57623;53.608;10.004;2024-01-30T02:53:42;9.90;;;9.00;;
1577;SDS011;57623;53.608;10.004;2024-01-30T02:56:11;9.97;;;8.97;;
1577;SDS011;57623;53.608;10.004;2024-01-30T02:58:40;10.73;;;9.70;;
1577;SDS011;57623;53.608;10.004;2024-01-30T03:01:08;10.70;;;9.27;;
1577;SDS011;57623;53.608;10.004;2024-01-30T03:03:36;9.57;;;8.67;;
1577;SDS011;57623;53.608;10.004;2024-01-30T03:06:06;10.23;;;9.20;;
1577;SDS011;57623;53.608;10.004;2024-01-30T03:08:34;10.20;;;9.30;;
1577;SDS011;57623;53.608;10.004;2024-01-30T03:11:02;11.23;;;9.77;;
1577;SDS011;57623;53.608;10.004;2024-01-30T03:13:32;9.50;;;8.60;;
1577;SDS011;57623;53.608;10.004;2024-01-30T03:16:00;11.73;;;8.87;;
1577;SDS011;57623;53.608;10.004;2024-01-30T03:18:28;10.40;;;9.40;;
1577;SDS011;57623;53.608;10.004;2024-01-30T03:20:56;11.07;;;8.93;;
1577;SDS011;57623;53.608;10.004;2024-01-30T03:23:24;10.13;;;9.10;;
1577;SDS011;57623;53.608;10.004;2024-01-30T03:25:51;10.67;;;9.60;;
1577;SDS011;57623;53.608;10.004;2024-01-30T03:28:19;10.73;;;9.73;;
1577;SDS011;57623;53.608;10.004;2024-01-30T03:30:49;11.27;;;9.43;;
1577;SDS011;57623;53.608;10.004;2024-01-30T03:33:17;10.50;;;9.33;;
1577;SDS011;57623;53.608;10.004;2024-01-30T03:35:45;10.73;;;9.73;;
1577;SDS011;57623;53.608;10.004;2024-01-30T03:38:13;11.00;;;10.00;;
1577;SDS011;57623;53.608;10.004;2024-01-30T03:40:41;15.00;;;10.13;;
1577;SDS011;57623;53.608;10.004;2024-01-30T03:43:09;11.37;;;10.20;;
1577;SDS011;57623;53.608;10.004;2024-01-30T03:45:37;12.80;;;10.50;;
1577;SDS011;57623;53.608;10.004;2024-01-30T03:48:06;10.53;;;9.53;;
1577;SDS011;57623;53.608;10.004;2024-01-30T03:50:34;10.60;;;9.57;;
1577;SDS011;57623;53.608;10.004;2024-01-30T03:53:02;10.77;;;9.50;;
1577;SDS011;57623;53.608;10.004;2024-01-30T03:55:31;10.20;;;8.80;;
1577;SDS011;57623;53.608;10.004;2024-01-30T03:57:59;10.47;;;9.17;;
1577;SDS011;57623;53.608;10.004;2024-01-30T04:00:27;11.30;;;9.93;;
1577;SDS011;57623;53.608;10.004;2024-01-30T04:02:55;11.03;;;9.93;;
1577;SDS011;57623;53.608;10.004;2024-01-30T04:05:24;10.43;;;9.43;;
1577;SDS011;57623;53.608;10.004;2024-01-30T04:07:52;11.40;;;10.30;;
1577;SDS011;57623;53.608;10.004;2024-01-30T04:10:20;10.87;;;9.80;;
1577;SDS011;57623;53.608;10.004;2024-01-30T04:12:48;10.90;;;9.77;;
1577;SDS011;57623;53.608;10.004;2024-01-30T04:15:16;12.60;;;10.13;;
1577;SDS011;57623;53.608;10.004;2024-01-30T04:17:44;12.27;;;10.97;;
1577;SDS011;57623;53.608;10.004;2024-01-30T04:20:13;11.93;;;10.73;;
1577;SDS011;57623;53.608;10.004;2024-01-30T04:22:44;10.90;;;9.80;;
1577;SDS011;57623;53.608;10.004;2024-01-30T04:25:13;12.77;;;11.13;;
1577;SDS011;57623;53.608;10.004;2024-01-30T04:27:41;11.53;;;10.40;;
1577;SDS011;57623;53.608;10.004;2024-01-30T04:30:09;13.10;;;10.63;;
1577;SDS011;57623;53.608;10.004;2024-01-30T04:32:38;11.40;;;10.10;;
1577;SDS011;57623;53.608;10.004;2024-01-30T04:35:06;12.60;;;10.50;;
1577;SDS011;57623;53.608;10.004;2024-01-30T04:37:37;11.50;;;10.30;;
1577;SDS011;57623;53.608;10.004;2024-01-30T04:40:07;11.30;;;10.20;;
1577;SDS011;57623;53.608;10.004;2024-01-30T04:42:36;12.50;;;10.57;;
1577;SDS011;57623;53.608;10.004;2024-01-30T04:45:05;12.73;;;10.47;;
1577;SDS011;57623;53.608;10.004;2024-01-30T04:47:34;11.77;;;10.67;;
1577;SDS011;57623;53.608;10.004;2024-01-30T04:50:02;12.10;;;10.90;;
1577;SDS011;57623;53.608;10.004;2024-01-30T04:52:31;12.23;;;11.00;;
1577;SDS011;57623;53.608;10.004;2024-01-30T04:54:59;11.60;;;10.40;;
1577;SDS011;57623;53.608;10.004;2024-01-30T04:57:28;12.30;;;10.37;;
1577;SDS011;57623;53.608;10.004;2024-01-30T04:59:57;11.50;;;10.40;;
1577;SDS011;57623;53.608;10.004;2024-01-30T05:02:25;11.23;;;10.07;;
1577;SDS011;57623;53.608;10.004;2024-01-30T05:04:53;12.80;;;11.40;;
1577;SDS011;57623;53.608;10.004;2024-01-30T05:07:21;13.20;;;11.33;;
1577;SDS011;57623;53.608;10.004;2024-01-30T05:09:49;12.80;;;11.10;;
1577;SDS011;57623;53.608;10.004;2024-01-30T05:12:18;12.00;;;10.67;;
1577;SDS011;57623;53.608;10.004;2024-01-30T05:14:48;13.70;;;11.37;;
1577;SDS011;57623;53.608;10.004;2024-01-30T05:17:16;11.80;;;10.60;;
1577;SDS011;57623;53.608;10.004;2024-01-30T05:19:44;12.30;;;11.13;;
1577;SDS011;57623;53.608;10.004;2024-01-30T05:22:12;12.90;;;11.10;;
1577;SDS011;57623;53.608;10.004;2024-01-30T05:24:42;12.10;;;10.90;;
1577;SDS011;57623;53.608;10.004;2024-01-30T05:27:10;12.13;;;10.97;;
1577;SDS011;57623;53.608;10.004;2024-01-30T05:29:39;11.97;;;10.77;;
1577;SDS011;57623;53.608;10.004;2024-01-30T05:32:09;12.73;;;10.33;;
1577;SDS011;57623;53.608;10.004;2024-01-30T05:34:37;13.30;;;11.67;;
1577;SDS011;57623;53.608;10.004;2024-01-30T05:37:05;12.07;;;10.90;;
1577;SDS011;57623;53.608;10.004;2024-01-30T05:39:33;13.40;;;12.00;;
1577;SDS011;57623;53.608;10.004;2024-01-30T05:42:01;12.50;;;11.20;;
1577;SDS011;57623;53.608;10.004;2024-01-30T05:44:30;12.83;;;11.53;;
1577;SDS011;57623;53.608;10.004;2024-01-30T05:46:58;13.93;;;12.33;;
1577;SDS011;57623;53.608;10.004;2024-01-30T05:49:27;13.70;;;11.93;;
1577;SDS011;57623;53.608;10.004;2024-01-30T05:51:55;13.23;;;11.90;;
1577;SDS011;57623;53.608;10.004;2024-01-30T05:54:23;14.10;;;11.87;;
1577;SDS011;57623;53.608;10.004;2024-01-30T05:56:51;15.60;;;12.53;;
1577;SDS011;57623;53.608;10.004;2024-01-30T05:59:19;14.23;;;12.80;;
1577;SDS011;57623;53.608;10.004;2024-01-30T06:01:47;14.40;;;12.77;;
1577;SDS011;57623;53.608;10.004;2024-01-30T06:04:15;13.00;;;11.70;;
1577;SDS011;57623;53.608;10.004;2024-01-30T06:06:45;14.30;;;12.93;;
1577;SDS011;57623;53.608;10.004;2024-01-30T06:09:13;14.40;;;12.30;;
1577;SDS011;57623;53.608;10.004;2024-01-30T06:11:41;13.87;;;11.53;;
1577;SDS011;57623;53.608;10.004;2024-01-30T06:14:09;14.07;;;12.57;;
1577;SDS011;57623;53.608;10.004;2024-01-30T06:16:37;14.17;;;12.77;;
1577;SDS011;57623;53.608;10.004;2024-01-30T06:19:05;13.93;;;12.20;;
1577;SDS011;57623;53.608;10.004;2024-01-30T06:21:33;16.27;;;13.60;;
1577;SDS011;57623;53.608;10.004;2024-01-30T06:24:04;14.33;;;12.90;;
1577;SDS011;57623;53.608;10.004;2024-01-30T06:26:32;15.53;;;12.40;;
1577;SDS011;57623;53.608;10.004;2024-01-30T06:29:01;17.13;;;13.77;;
1577;SDS011;57623;53.608;10.004;2024-01-30T06:31:29;14.60;;;12.93;;
1577;SDS011;57623;53.608;10.004;2024-01-30T06:33:57;17.57;;;12.60;;
1577;SDS011;57623;53.608;10.004;2024-01-30T06:36:25;14.50;;;13.00;;
1577;SDS011;57623;53.608;10.004;2024-01-30T06:38:53;13.47;;;12.23;;
1577;SDS011;57623;53.608;10.004;2024-01-30T06:41:22;13.83;;;12.13;;
1577;SDS011;57623;53.608;10.004;2024-01-30T06:43:50;18.57;;;13.30;;
1577;SDS011;57623;53.608;10.004;2024-01-30T06:46:19;14.23;;;12.73;;
1577;SDS011;57623;53.608;10.004;2024-01-30T06:48:47;16.07;;;12.70;;
1577;SDS011;57623;53.608;10.004;2024-01-30T06:51:15;14.80;;;13.30;;
1577;SDS011;57623;53.608;10.004;2024-01-30T06:53:43;15.50;;;13.00;;
1577;SDS011;57623;53.608;10.004;2024-01-30T06:56:11;14.33;;;12.83;;
1577;SDS011;57623;53.608;10.004;2024-01-30T06:58:41;13.50;;;12.20;;
1577;SDS011;57623;53.608;10.004;2024-01-30T07:01:09;14.10;;;12.80;;
1577;SDS011;57623;53.608;10.004;2024-01-30T07:03:38;14.80;;;12.63;;
1577;SDS011;57623;53.608;10.004;2024-01-30T07:06:06;14.73;;;13.20;;
1577;SDS011;57623;53.608;10.004;2024-01-30T07:08:34;15.63;;;12.60;;
1577;SDS011;57623;53.608;10.004;2024-01-30T07:11:03;14.37;;;12.87;;
1577;SDS011;57623;53.608;10.004;2024-01-30T07:13:31;14.00;;;12.50;;
1577;SDS011;57623;53.608;10.004;2024-01-30T07:16:01;16.13;;;12.13;;
1577;SDS011;57623;53.608;10.004;2024-01-30T07:18:29;17.30;;;12.60;;
1577;SDS011;57623;53.608;10.004;2024-01-30T07:20:57;14.37;;;12.83;;
1577;SDS011;57623;53.608;10.004;2024-01-30T07:23:25;13.53;;;12.23;;
1577;SDS011;57623;53.608;10.004;2024-01-30T07:25:53;16.20;;;13.30;;
1577;SDS011;57623;53.608;10.004;2024-01-30T07:28:20;15.17;;;13.60;;
1577;SDS011;57623;53.608;10.004;2024-01-30T07:30:51;13.90;;;12.50;;
1577;SDS011;57623;53.608;10.004;2024-01-30T07:33:21;14.13;;;12.73;;
1577;SDS011;57623;53.608;10.004;2024-01-30T07:35:49;17.07;;;13.00;;
1577;SDS011;57623;53.608;10.004;2024-01-30T07:38:19;15.77;;;13.00;;
1577;SDS011;57623;53.608;10.004;2024-01-30T07:40:47;15.57;;;13.13;;
1577;SDS011;57623;53.608;10.004;2024-01-30T07:43:15;18.00;;;14.33;;
1577;SDS011;57623;53.608;10.004;2024-01-30T07:45:43;14.37;;;12.87;;
1577;SDS011;57623;53.608;10.004;2024-01-30T07:48:12;16.13;;;13.60;;
1577;SDS011;57623;53.608;10.004;2024-01-30T07:50:41;13.67;;;12.23;;
1577;SDS011;57623;53.608;10.004;2024-01-30T07:53:09;15.03;;;13.43;;
1577;SDS011;57623;53.608;10.004;2024-01-30T07:55:37;15.70;;;13.07;;
1577;SDS011;57623;53.608;10.004;2024-01-30T07:58:05;16.40;;;13.70;;
1577;SDS011;57623;53.608;10.004;2024-01-30T08:00:33;16.63;;;13.60;;
1577;SDS011;57623;53.608;10.004;2024-01-30T08:03:01;14.00;;;12.60;;
1577;SDS011;57623;53.608;10.004;2024-01-30T08:05:29;14.60;;;13.10;;
1577;SDS011;57623;53.608;10.004;2024-01-30T08:07:59;15.10;;;13.20;;
1577;SDS011;57623;53.608;10.004;2024-01-30T08:10:27;16.50;;;13.80;;
1577;SDS011;57623;53.608;10.004;2024-01-30T08:12:55;15.70;;;14.00;;
1577;SDS011;57623;53.608;10.004;2024-01-30T08:15:23;16.80;;;15.17;;
1577;SDS011;57623;53.608;10.004;2024-01-30T08:17:51;14.67;;;13.07;;
1577;SDS011;57623;53.608;10.004;2024-01-30T08:20:24;15.70;;;14.17;;
1577;SDS011;57623;53.608;10.004;2024-01-30T08:22:52;18.13;;;13.27;;
1577;SDS011;57623;53.608;10.004;2024-01-30T08:25:21;17.70;;;13.60;;
1577;SDS011;57623;53.608;10.004;2024-01-30T08:27:49;14.40;;;12.90;;
1577;SDS011;57623;53.608;10.004;2024-01-30T08:30:17;17.07;;;14.10;;
1577;SDS011;57623;53.608;10.004;2024-01-30T08:32:46;15.60;;;13.50;;
1577;SDS011;57623;53.608;10.004;2024-01-30T08:35:14;14.80;;;13.30;;
1577;SDS011;57623;53.608;10.004;2024-01-30T08:37:43;17.53;;;13.90;;
1577;SDS011;57623;53.608;10.004;2024-01-30T08:40:11;16.63;;;13.47;;
1577;SDS011;57623;53.608;10.004;2024-01-30T08:42:40;21.90;;;14.37;;
1577;SDS011;57623;53.608;10.004;2024-01-30T08:45:09;14.63;;;13.13;;
1577;SDS011;57623;53.608;10.004;2024-01-30T08:47:37;15.67;;;14.07;;
1577;SDS011;57623;53.608;10.004;2024-01-30T08:50:05;18.20;;;14.50;;
1577;SDS011;57623;53.608;10.004;2024-01-30T08:52:34;14.97;;;13.27;;
1577;SDS011;57623;53.608;10.004;2024-01-30T08:55:03;21.83;;;14.50;;
1577;SDS011;57623;53.608;10.004;2024-01-30T08:57:32;15.47;;;13.87;;
1577;SDS011;57623;53.608;10.004;2024-01-30T09:00:01;18.40;;;14.70;;
1577;SDS011;57623;53.608;10.004;2024-01-30T09:02:33;16.27;;;14.17;;
1577;SDS011;57623;53.608;10.004;2024-01-30T09:05:01;16.73;;;13.80;;
1577;SDS011;57623;53.608;10.004;2024-01-30T09:07:30;17.90;;;14.00;;
1577;SDS011;57623;53.608;10.004;2024-01-30T09:09:58;16.60;;;14.57;;
1577;SDS011;57623;53.608;10.004;2024-01-30T09:12:26;16.93;;;15.03;;
1577;SDS011;57623;53.608;10.004;2024-01-30T09:14:54;16.00;;;13.83;;
1577;SDS011;57623;53.608;10.004;2024-01-30T09:17:23;16.50;;;14.80;;
1577;SDS011;57623;53.608;10.004;2024-01-30T09:19:51;14.90;;;13.30;;
1577;SDS011;57623;53.608;10.004;2024-01-30T09:22:19;16.77;;;14.27;;
1577;SDS011;57623;53.608;10.004;2024-01-30T09:24:47;16.50;;;14.80;;
1577;SDS011;57623;53.608;10.004;2024-01-30T09:27:15;17.57;;;14.50;;
1577;SDS011;57623;53.608;10.004;2024-01-30T09:29:43;15.87;;;13.90;;
1577;SDS011;57623;53.608;10.004;2024-01-30T09:32:11;18.90;;;14.83;;
1577;SDS011;57623;53.608;10.004;2024-01-30T09:34:41;17.90;;;15.13;;
1577;SDS011;57623;53.608;10.004;2024-01-30T09:37:09;17.73;;;15.20;;
1577;SDS011;57623;53.608;10.004;2024-01-30T09:39:37;17.17;;;15.23;;
1577;SDS011;57623;53.608;10.004;2024-01-30T09:42:06;17.50;;;15.20;;
1577;SDS011;57623;53.608;10.004;2024-01-30T09:44:39;18.03;;;14.70;;
1577;SDS011;57623;53.608;10.004;2024-01-30T09:47:10;17.20;;;14.87;;
1577;SDS011;57623;53.608;10.004;2024-01-30T09:49:40;18.63;;;14.27;;
1577;SDS011;57623;53.608;10.004;2024-01-30T09:52:11;16.80;;;14.00;;
1577;SDS011;57623;53.608;10.004;2024-01-30T09:54:39;14.80;;;13.27;;
1577;SDS011;57623;53.608;10.004;2024-01-30T09:57:08;19.47;;;14.43;;
1577;SDS011;57623;53.608;10.004;2024-01-30T09:59:37;16.30;;;13.90;;
1577;SDS011;57623;53.608;10.004;2024-01-30T10:02:05;15.60;;;13.60;;
1577;SDS011;57623;53.608;10.004;2024-01-30T10:04:34;15.80;;;13.97;;
1577;SDS011;57623;53.608;10.004;2024-01-30T10:07:03;16.30;;;14.60;;
1577;SDS011;57623;53.608;10.004;2024-01-30T10:09:32;16.57;;;14.60;;
1577;SDS011;57623;53.608;10.004;2024-01-30T10:12:01;17.17;;;14.17;;
1577;SDS011;57623;53.608;10.004;2024-01-30T10:14:31;16.00;;;13.77;;
1577;SDS011;57623;53.608;10.004;2024-01-30T10:16:58;18.90;;;15.63;;
1577;SDS011;57623;53.608;10.004;2024-01-30T10:19:26;18.37;;;15.27;;
1577;SDS011;57623;53.608;10.004;2024-01-30T10:21:55;17.13;;;15.30;;
1577;SDS011;57623;53.608;10.004;2024-01-30T10:24:27;16.80;;;14.10;;
1577;SDS011;57623;53.608;10.004;2024-01-30T10:26:55;19.97;;;14.43;;
1577;SDS011;57623;53.608;10.004;2024-01-30T10:29:25;18.60;;;15.37;;
1577;SDS011;57623;53.608;10.004;2024-01-30T10:32:00;17.13;;;14.63;;
1577;SDS011;57623;53.608;10.004;2024-01-30T10:34:28;16.83;;;14.53;;
1577;SDS011;57623;53.608;10.004;2024-01-30T10:36:59;15.77;;;14.07;;
1577;SDS011;57623;53.608;10.004;2024-01-30T10:39:36;17.83;;;14.37;;
1577;SDS011;57623;53.608;10.004;2024-01-30T10:42:06;15.67;;;14.07;;
1577;SDS011;57623;53.608;10.004;2024-01-30T10:44:43;18.03;;;14.30;;
1577;SDS011;57623;53.608;10.004;2024-01-30T10:47:25;20.77;;;15.70;;
1577;SDS011;57623;53.608;10.004;2024-01-30T10:49:55;25.67;;;19.07;;
1577;SDS011;57623;53.608;10.004;2024-01-30T10:52:24;16.90;;;15.00;;
1577;SDS011;57623;53.608;10.004;2024-01-30T10:54:55;16.67;;;14.60;;
1577;SDS011;57623;53.608;10.004;2024-01-30T10:57:24;16.03;;;14.30;;
1577;SDS011;57623;53.608;10.004;2024-01-30T10:59:53;18.03;;;13.40;;
1577;SDS011;57623;53.608;10.004;2024-01-30T11:02:24;15.93;;;13.80;;
1577;SDS011;57623;53.608;10.004;2024-01-30T11:04:55;17.20;;;14.03;;
1577;SDS011;57623;53.608;10.004;2024-01-30T11:07:25;18.87;;;15.40;;
1577;SDS011;57623;53.608;10.004;2024-01-30T11:10:00;21.20;;;15.47;;
1577;SDS011;57623;53.608;10.004;2024-01-30T11:12:29;19.80;;;15.70;;
1577;SDS011;57623;53.608;10.004;2024-01-30T11:15:04;18.73;;;15.17;;
1577;SDS011;57623;53.608;10.004;2024-01-30T11:17:39;28.00;;;16.40;;
1577;SDS011;57623;53.608;10.004;2024-01-30T11:20:14;16.43;;;14.70;;
1577;SDS011;57623;53.608;10.004;2024-01-30T11:22:44;15.77;;;14.07;;
1577;SDS011;57623;53.608;10.004;2024-01-30T11:25:14;16.17;;;14.40;;
1577;SDS011;57623;53.608;10.004;2024-01-30T11:27:44;15.57;;;13.97;;
1577;SDS011;57623;53.608;10.004;2024-01-30T11:30:20;16.10;;;14.40;;
1577;SDS011;57623;53.608;10.004;2024-01-30T11:32:59;18.37;;;15.00;;
1577;SDS011;57623;53.608;10.004;2024-01-30T11:35:29;17.03;;;14.93;;
1577;SDS011;57623;53.608;10.004;2024-01-30T11:37:59;16.17;;;14.00;;
1577;SDS011;57623;53.608;10.004;2024-01-30T11:40:29;19.13;;;14.60;;
1577;SDS011;57623;53.608;10.004;2024-01-30T11:43:00;16.30;;;14.57;;
1577;SDS011;57623;53.608;10.004;2024-01-30T11:45:29;16.70;;;14.00;;
1577;SDS011;57623;53.608;10.004;2024-01-30T11:47:57;15.47;;;13.87;;
1577;SDS011;57623;53.608;10.004;2024-01-30T11:50:28;17.83;;;13.93;;
1577;SDS011;57623;53.608;10.004;2024-01-30T11:52:56;16.57;;;14.53;;
1577;SDS011;57623;53.608;10.004;2024-01-30T11:55:25;20.20;;;14.20;;
1577;SDS011;57623;53.608;10.004;2024-01-30T11:58:00;15.23;;;12.97;;
1577;SDS011;57623;53.608;10.004;2024-01-30T12:00:29;18.27;;;13.93;;
1577;SDS011;57623;53.608;10.004;2024-01-30T12:02:59;16.30;;;14.33;;
1577;SDS011;57623;53.608;10.004;2024-01-30T12:05:28;16.40;;;12.73;;
1577;SDS011;57623;53.608;10.004;2024-01-30T12:07:57;17.37;;;15.27;;
1577;SDS011;57623;53.608;10.004;2024-01-30T12:10:27;15.67;;;14.07;;
1577;SDS011;57623;53.608;10.004;2024-01-30T12:12:56;15.53;;;13.93;;
1577;SDS011;57623;53.608;10.004;2024-01-30T12:15:26;16.33;;;13.43;;
1577;SDS011;57623;53.608;10.004;2024-01-30T12:18:03;17.00;;;14.27;;
1577;SDS011;57623;53.608;10.004;2024-01-30T12:20:32;14.47;;;13.00;;
1577;SDS011;57623;53.608;10.004;2024-01-30T12:23:00;15.23;;;13.37;;
1577;SDS011;57623;53.608;10.004;2024-01-30T12:25:28;17.47;;;13.37;;
1577;SDS011;57623;53.608;10.004;2024-01-30T12:27:57;15.70;;;13.70;;
1577;SDS011;57623;53.608;10.004;2024-01-30T12:30:27;15.77;;;13.43;;
1577;SDS011;57623;53.608;10.004;2024-01-30T12:32:56;15.10;;;12.30;;
1577;SDS011;57623;53.608;10.004;2024-01-30T12:35:24;13.53;;;12.13;;
1577;SDS011;57623;53.608;10.004;2024-01-30T12:37:56;17.13;;;13.27;;
1577;SDS011;57623;53.608;10.004;2024-01-30T12:40:24;22.97;;;16.90;;
1577;SDS011;57623;53.608;10.004;2024-01-30T12:42:53;14.43;;;12.17;;
1577;SDS011;57623;53.608;10.004;2024-01-30T12:45:21;13.10;;;11.30;;
1577;SDS011;57623;53.608;10.004;2024-01-30T12:47:51;12.63;;;11.13;;
1577;SDS011;57623;53.608;10.004;2024-01-30T12:50:19;12.67;;;10.83;;
1577;SDS011;57623;53.608;10.004;2024-01-30T12:52:48;14.53;;;11.33;;
1577;SDS011;57623;53.608;10.004;2024-01-30T12:55:16;14.03;;;11.57;;
1577;SDS011;57623;53.608;10.004;2024-01-30T12:57:45;13.93;;;11.90;;
1577;SDS011;57623;53.608;10.004;2024-01-30T13:00:13;12.27;;;10.90;;
1577;SDS011;57623;53.608;10.004;2024-01-30T13:02:43;11.77;;;10.27;;
1577;SDS011;57623;53.608;10.004;2024-01-30T13:05:13;13.33;;;11.60;;
1577;SDS011;57623;53.608;10.004;2024-01-30T13:07:41;12.30;;;11.00;;
1577;SDS011;57623;53.608;10.004;2024-01-30T13:10:10;14.00;;;11.87;;
1577;SDS011;57623;53.608;10.004;2024-01-30T13:12:38;13.77;;;11.10;;
1577;SDS011;57623;53.608;10.004;2024-01-30T13:15:06;13.50;;;12.10;;
1577;SDS011;57623;53.608;10.004;2024-01-30T13:17:34;13.83;;;12.43;;
1577;SDS011;57623;53.608;10.004;2024-01-30T13:20:03;12.03;;;10.83;;
1577;SDS011;57623;53.608;10.004;2024-01-30T13:22:38;14.37;;;12.00;;
1577;SDS011;57623;53.608;10.004;2024-01-30T13:25:06;12.47;;;11.20;;
1577;SDS011;57623;53.608;10.004;2024-01-30T13:27:35;12.87;;;11.43;;
1577;SDS011;57623;53.608;10.004;2024-01-30T13:30:06;12.00;;;10.70;;
1577;SDS011;57623;53.608;10.004;2024-01-30T13:32:36;12.83;;;11.53;;
1577;SDS011;57623;53.608;10.004;2024-01-30T13:35:04;13.20;;;11.60;;
1577;SDS011;57623;53.608;10.004;2024-01-30T13:37:33;14.00;;;10.83;;
1577;SDS011;57623;53.608;10.004;2024-01-30T13:40:03;13.17;;;11.33;;
1577;SDS011;57623;53.608;10.004;2024-01-30T13:42:39;13.43;;;10.60;;
1577;SDS011;57623;53.608;10.004;2024-01-30T13:45:07;14.13;;;11.37;;
1577;SDS011;57623;53.608;10.004;2024-01-30T13:47:37;15.00;;;12.10;;
1577;SDS011;57623;53.608;10.004;2024-01-30T13:50:05;13.20;;;11.90;;
1577;SDS011;57623;53.608;10.004;2024-01-30T13:52:34;15.10;;;12.83;;
1577;SDS011;57623;53.608;10.004;2024-01-30T13:55:11;13.30;;;11.27;;
1577;SDS011;57623;53.608;10.004;2024-01-30T13:57:40;14.20;;;12.07;;
1577;SDS011;57623;53.608;10.004;2024-01-30T14:00:08;16.37;;;12.37;;
1577;SDS011;57623;53.608;10.004;2024-01-30T14:02:38;14.63;;;11.70;;
1577;SDS011;57623;53.608;10.004;2024-01-30T14:05:06;13.83;;;12.40;;
1577;SDS011;57623;53.608;10.004;2024-01-30T14:07:35;18.07;;;13.93;;
1577;SDS011;57623;53.608;10.004;2024-01-30T14:10:06;14.43;;;11.53;;
1577;SDS011;57623;53.608;10.004;2024-01-30T14:12:41;13.10;;;11.57;;
1577;SDS011;57623;53.608;10.004;2024-01-30T14:15:10;16.30;;;12.20;;
1577;SDS011;57623;53.608;10.004;2024-01-30T14:17:52;12.47;;;11.07;;
1577;SDS011;57623;53.608;10.004;2024-01-30T14:20:21;16.30;;;11.87;;
1577;SDS011;57623;53.608;10.004;2024-01-30T14:22:49;12.83;;;11.53;;
1577;SDS011;57623;53.608;10.004;2024-01-30T14:25:18;13.23;;;11.93;;
1577;SDS011;57623;53.608;10.004;2024-01-30T14:27:47;13.07;;;11.73;;
1577;SDS011;57623;53.608;10.004;2024-01-30T14:30:15;12.83;;;11.53;;
1577;SDS011;57623;53.608;10.004;2024-01-30T14:32:44;14.77;;;12.50;;
1577;SDS011;57623;53.608;10.004;2024-01-30T14:35:13;13.43;;;12.00;;